sensor_id;sensor_type;location;lat;lon;timestamp;temperature;humidity
516;DHT22;244;48.508;9.052;2023-04-25T00:02:13;10.30;22.80
516;DHT22;244;48.508;9.052;2023-04-25T00:04:40;10.30;22.70
516;DHT22;244;48.508;9.052;2023-04-25T00:07:08;10.30;22.50
516;DHT22;244;48.508;9.052;2023-04-25T00:09:36;10.20;22.40
516;DHT22;244;48.508;9.052;2023-04-25T00:12:03;10.30;22.40
516;DHT22;244;48.508;9.052;2023-04-25T00:14:30;10.20;22.40
516;DHT22;244;48.508;9.052;2023-04-25T00:16:59;10.20;22.50
516;DHT22;244;48.508;9.052;2023-04-25T00:19:26;10.20;22.60
516;DHT22;244;48.508;9.052;2023-04-25T00:21:53;10.20;22.70
516;DHT22;244;48.508;9.052;2023-04-25T00:24:22;10.20;22.70
516;DHT22;244;48.508;9.052;2023-04-25T00:26:49;10.20;22.70
516;DHT22;244;48.508;9.052;2023-04-25T00:29:16;10.20;23.20
516;DHT22;244;48.508;9.052;2023-04-25T00:31:43;10.20;22.60
516;DHT22;244;48.508;9.052;2023-04-25T00:34:10;10.20;22.60
516;DHT22;244;48.508;9.052;2023-04-25T00:36:37;10.30;22.60
516;DHT22;244;48.508;9.052;2023-04-25T00:39:04;10.30;22.40
516;DHT22;244;48.508;9.052;2023-04-25T00:41:33;10.20;22.30
516;DHT22;244;48.508;9.052;2023-04-25T00:44:01;10.20;22.30
516;DHT22;244;48.508;9.052;2023-04-25T00:46:29;10.30;22.40
516;DHT22;244;48.508;9.052;2023-04-25T00:48:56;10.30;22.40
516;DHT22;244;48.508;9.052;2023-04-25T00:51:24;10.30;22.90
516;DHT22;244;48.508;9.052;2023-04-25T00:53:52;10.30;22.20
516;DHT22;244;48.508;9.052;2023-04-25T00:56:19;10.30;22.20
516;DHT22;244;48.508;9.052;2023-04-25T00:58:50;10.30;22.20
516;DHT22;244;48.508;9.052;2023-04-25T01:01:18;10.30;22.20
516;DHT22;244;48.508;9.052;2023-04-25T01:03:46;10.30;22.10
516;DHT22;244;48.508;9.052;2023-04-25T01:06:16;10.30;22.00
516;DHT22;244;48.508;9.052;2023-04-25T01:08:43;10.30;22.00
516;DHT22;244;48.508;9.052;2023-04-25T01:11:10;10.30;22.00
516;DHT22;244;48.508;9.052;2023-04-25T01:13:36;10.30;22.50
516;DHT22;244;48.508;9.052;2023-04-25T01:16:05;10.30;21.90
516;DHT22;244;48.508;9.052;2023-04-25T01:18:32;10.30;22.00
516;DHT22;244;48.508;9.052;2023-04-25T01:21:07;10.20;22.00
516;DHT22;244;48.508;9.052;2023-04-25T01:23:34;10.20;22.10
516;DHT22;244;48.508;9.052;2023-04-25T01:26:01;10.20;22.10
516;DHT22;244;48.508;9.052;2023-04-25T01:28:29;10.20;22.10
516;DHT22;244;48.508;9.052;2023-04-25T01:30:57;10.20;22.10
516;DHT22;244;48.508;9.052;2023-04-25T01:33:24;10.20;22.00
516;DHT22;244;48.508;9.052;2023-04-25T01:35:51;10.20;21.80
516;DHT22;244;48.508;9.052;2023-04-25T01:38:19;10.20;22.50
516;DHT22;244;48.508;9.052;2023-04-25T01:40:46;10.10;22.40
516;DHT22;244;48.508;9.052;2023-04-25T01:43:15;10.00;22.30
516;DHT22;244;48.508;9.052;2023-04-25T01:45:42;10.00;21.80
516;DHT22;244;48.508;9.052;2023-04-25T01:48:12;9.90;22.50
516;DHT22;244;48.508;9.052;2023-04-25T01:50:40;9.90;22.60
516;DHT22;244;48.508;9.052;2023-04-25T01:53:09;9.80;22.70
516;DHT22;244;48.508;9.052;2023-04-25T01:55:37;9.80;22.60
516;DHT22;244;48.508;9.052;2023-04-25T01:58:05;9.80;22.60
516;DHT22;244;48.508;9.052;2023-04-25T02:00:34;9.80;22.60
516;DHT22;244;48.508;9.052;2023-04-25T02:03:03;9.80;22.70
516;DHT22;244;48.508;9.052;2023-04-25T02:05:34;9.70;23.30
516;DHT22;244;48.508;9.052;2023-04-25T02:08:02;9.70;22.70
516;DHT22;244;48.508;9.052;2023-04-25T02:10:29;9.60;22.80
516;DHT22;244;48.508;9.052;2023-04-25T02:12:58;9.60;23.00
516;DHT22;244;48.508;9.052;2023-04-25T02:15:25;9.50;23.00
516;DHT22;244;48.508;9.052;2023-04-25T02:17:52;9.50;23.10
516;DHT22;244;48.508;9.052;2023-04-25T02:20:20;9.50;23.10
516;DHT22;244;48.508;9.052;2023-04-25T02:22:47;9.40;23.00
516;DHT22;244;48.508;9.052;2023-04-25T02:25:15;9.40;23.00
516;DHT22;244;48.508;9.052;2023-04-25T02:27:42;9.30;22.90
516;DHT22;244;48.508;9.052;2023-04-25T02:30:11;9.20;22.90
516;DHT22;244;48.508;9.052;2023-04-25T02:32:38;9.10;22.90
516;DHT22;244;48.508;9.052;2023-04-25T02:35:06;9.10;23.00
516;DHT22;244;48.508;9.052;2023-04-25T02:37:34;9.00;23.00
516;DHT22;244;48.508;9.052;2023-04-25T02:40:01;9.00;23.20
516;DHT22;244;48.508;9.052;2023-04-25T02:42:29;9.00;24.10
516;DHT22;244;48.508;9.052;2023-04-25T02:44:56;9.00;23.60
516;DHT22;244;48.508;9.052;2023-04-25T02:47:24;9.00;23.60
516;DHT22;244;48.508;9.052;2023-04-25T02:49:51;9.00;23.60
516;DHT22;244;48.508;9.052;2023-04-25T02:52:18;9.00;23.60
516;DHT22;244;48.508;9.052;2023-04-25T02:54:46;9.00;23.50
516;DHT22;244;48.508;9.052;2023-04-25T02:57:13;9.00;23.40
516;DHT22;244;48.508;9.052;2023-04-25T02:59:40;8.90;23.20
516;DHT22;244;48.508;9.052;2023-04-25T03:02:07;8.90;23.30
516;DHT22;244;48.508;9.052;2023-04-25T03:04:35;8.90;23.30
516;DHT22;244;48.508;9.052;2023-04-25T03:07:02;8.90;23.90
516;DHT22;244;48.508;9.052;2023-04-25T03:09:29;8.90;23.20
516;DHT22;244;48.508;9.052;2023-04-25T03:12:01;8.90;23.20
516;DHT22;244;48.508;9.052;2023-04-25T03:14:28;9.00;23.30
516;DHT22;244;48.508;9.052;2023-04-25T03:16:55;9.00;23.30
516;DHT22;244;48.508;9.052;2023-04-25T03:19:22;9.00;23.20
516;DHT22;244;48.508;9.052;2023-04-25T03:21:50;9.00;23.10
516;DHT22;244;48.508;9.052;2023-04-25T03:24:17;9.00;23.10
516;DHT22;244;48.508;9.052;2023-04-25T03:26:44;9.00;23.00
516;DHT22;244;48.508;9.052;2023-04-25T03:29:11;9.00;22.90
516;DHT22;244;48.508;9.052;2023-04-25T03:31:38;9.00;22.80
516;DHT22;244;48.508;9.052;2023-04-25T03:34:05;9.10;22.80
516;DHT22;244;48.508;9.052;2023-04-25T03:36:32;9.00;23.30
516;DHT22;244;48.508;9.052;2023-04-25T03:39:00;9.00;22.70
516;DHT22;244;48.508;9.052;2023-04-25T03:41:28;9.00;22.60
516;DHT22;244;48.508;9.052;2023-04-25T03:43:55;9.00;22.60
516;DHT22;244;48.508;9.052;2023-04-25T03:46:22;9.00;22.60
516;DHT22;244;48.508;9.052;2023-04-25T03:48:49;9.00;22.60
516;DHT22;244;48.508;9.052;2023-04-25T03:51:15;9.00;22.50
516;DHT22;244;48.508;9.052;2023-04-25T03:53:42;9.00;22.50
516;DHT22;244;48.508;9.052;2023-04-25T03:56:11;9.00;22.50
516;DHT22;244;48.508;9.052;2023-04-25T03:58:38;9.00;22.50
516;DHT22;244;48.508;9.052;2023-04-25T04:01:04;8.90;22.40
516;DHT22;244;48.508;9.052;2023-04-25T04:03:33;8.90;22.50
516;DHT22;244;48.508;9.052;2023-04-25T04:06:00;8.90;22.60
516;DHT22;244;48.508;9.052;2023-04-25T04:08:28;8.80;22.60
516;DHT22;244;48.508;9.052;2023-04-25T04:10:55;8.80;23.20
516;DHT22;244;48.508;9.052;2023-04-25T04:13:23;8.80;22.60
516;DHT22;244;48.508;9.052;2023-04-25T04:15:50;8.80;22.60
516;DHT22;244;48.508;9.052;2023-04-25T04:18:17;8.70;22.60
516;DHT22;244;48.508;9.052;2023-04-25T04:20:44;8.70;22.60
516;DHT22;244;48.508;9.052;2023-04-25T04:23:11;8.80;22.60
516;DHT22;244;48.508;9.052;2023-04-25T04:25:38;8.70;22.60
516;DHT22;244;48.508;9.052;2023-04-25T04:28:07;8.80;22.70
516;DHT22;244;48.508;9.052;2023-04-25T04:30:38;8.80;22.90
516;DHT22;244;48.508;9.052;2023-04-25T04:33:04;8.80;22.90
516;DHT22;244;48.508;9.052;2023-04-25T04:35:33;8.80;22.90
516;DHT22;244;48.508;9.052;2023-04-25T04:38:06;8.70;22.80
516;DHT22;244;48.508;9.052;2023-04-25T04:40:33;8.70;22.80
516;DHT22;244;48.508;9.052;2023-04-25T04:43:00;8.70;22.80
516;DHT22;244;48.508;9.052;2023-04-25T04:45:27;8.70;22.90
516;DHT22;244;48.508;9.052;2023-04-25T04:47:56;8.80;22.90
516;DHT22;244;48.508;9.052;2023-04-25T04:50:23;8.90;22.80
516;DHT22;244;48.508;9.052;2023-04-25T04:52:50;9.00;22.70
516;DHT22;244;48.508;9.052;2023-04-25T04:55:16;9.10;22.60
516;DHT22;244;48.508;9.052;2023-04-25T04:57:43;9.30;22.50
516;DHT22;244;48.508;9.052;2023-04-25T05:00:11;9.30;22.30
516;DHT22;244;48.508;9.052;2023-04-25T05:02:39;9.40;22.20
516;DHT22;244;48.508;9.052;2023-04-25T05:05:08;9.40;22.00
516;DHT22;244;48.508;9.052;2023-04-25T05:07:35;9.40;21.90
516;DHT22;244;48.508;9.052;2023-04-25T05:10:03;9.40;21.80
516;DHT22;244;48.508;9.052;2023-04-25T05:12:30;9.40;21.80
516;DHT22;244;48.508;9.052;2023-04-25T05:14:57;9.40;21.90
516;DHT22;244;48.508;9.052;2023-04-25T05:17:24;9.40;22.10
516;DHT22;244;48.508;9.052;2023-04-25T05:19:51;9.40;22.20
516;DHT22;244;48.508;9.052;2023-04-25T05:22:19;9.40;22.80
516;DHT22;244;48.508;9.052;2023-04-25T05:24:46;9.40;22.30
516;DHT22;244;48.508;9.052;2023-04-25T05:27:15;9.40;22.40
516;DHT22;244;48.508;9.052;2023-04-25T05:29:42;9.40;22.40
516;DHT22;244;48.508;9.052;2023-04-25T05:32:09;9.50;22.30
516;DHT22;244;48.508;9.052;2023-04-25T05:34:36;9.50;22.20
516;DHT22;244;48.508;9.052;2023-04-25T05:37:03;9.50;22.10
516;DHT22;244;48.508;9.052;2023-04-25T05:39:32;9.60;22.10
516;DHT22;244;48.508;9.052;2023-04-25T05:41:59;9.70;22.10
516;DHT22;244;48.508;9.052;2023-04-25T05:44:27;9.80;22.20
516;DHT22;244;48.508;9.052;2023-04-25T05:46:54;9.90;22.90
516;DHT22;244;48.508;9.052;2023-04-25T05:49:20;10.00;21.60
516;DHT22;244;48.508;9.052;2023-04-25T05:51:47;10.10;21.70
516;DHT22;244;48.508;9.052;2023-04-25T05:54:14;10.30;21.70
516;DHT22;244;48.508;9.052;2023-04-25T05:56:43;10.50;21.50
516;DHT22;244;48.508;9.052;2023-04-25T05:59:10;10.80;21.40
516;DHT22;244;48.508;9.052;2023-04-25T06:01:36;10.90;21.20
516;DHT22;244;48.508;9.052;2023-04-25T06:04:03;11.10;21.60
516;DHT22;244;48.508;9.052;2023-04-25T06:06:30;11.30;20.70
516;DHT22;244;48.508;9.052;2023-04-25T06:08:57;11.40;20.50
516;DHT22;244;48.508;9.052;2023-04-25T06:11:24;11.60;20.30
516;DHT22;244;48.508;9.052;2023-04-25T06:13:52;11.70;20.20
516;DHT22;244;48.508;9.052;2023-04-25T06:16:20;11.70;19.90
516;DHT22;244;48.508;9.052;2023-04-25T06:18:47;11.70;19.80
516;DHT22;244;48.508;9.052;2023-04-25T06:21:14;11.70;19.70
516;DHT22;244;48.508;9.052;2023-04-25T06:23:40;11.70;19.60
516;DHT22;244;48.508;9.052;2023-04-25T06:26:07;11.70;19.50
516;DHT22;244;48.508;9.052;2023-04-25T06:28:34;11.60;19.30
516;DHT22;244;48.508;9.052;2023-04-25T06:31:03;11.60;19.20
516;DHT22;244;48.508;9.052;2023-04-25T06:33:30;11.60;19.10
516;DHT22;244;48.508;9.052;2023-04-25T06:35:57;11.70;19.70
516;DHT22;244;48.508;9.052;2023-04-25T06:38:24;11.70;19.10
516;DHT22;244;48.508;9.052;2023-04-25T06:40:51;11.70;19.00
516;DHT22;244;48.508;9.052;2023-04-25T06:43:18;11.70;18.90
516;DHT22;244;48.508;9.052;2023-04-25T06:45:44;11.70;18.80
516;DHT22;244;48.508;9.052;2023-04-25T06:48:13;11.70;18.60
516;DHT22;244;48.508;9.052;2023-04-25T06:50:41;11.70;18.60
516;DHT22;244;48.508;9.052;2023-04-25T06:53:07;11.70;18.50
516;DHT22;244;48.508;9.052;2023-04-25T06:55:37;11.70;18.40
516;DHT22;244;48.508;9.052;2023-04-25T06:58:03;11.60;18.30
516;DHT22;244;48.508;9.052;2023-04-25T07:00:30;11.50;18.70
516;DHT22;244;48.508;9.052;2023-04-25T07:02:59;11.40;18.10
516;DHT22;244;48.508;9.052;2023-04-25T07:05:27;11.20;18.30
516;DHT22;244;48.508;9.052;2023-04-25T07:07:54;11.10;18.40
516;DHT22;244;48.508;9.052;2023-04-25T07:10:21;11.00;19.10
516;DHT22;244;48.508;9.052;2023-04-25T07:12:48;10.80;18.60
516;DHT22;244;48.508;9.052;2023-04-25T07:15:15;10.70;18.80
516;DHT22;244;48.508;9.052;2023-04-25T07:17:42;10.60;19.10
516;DHT22;244;48.508;9.052;2023-04-25T07:20:10;10.50;19.30
516;DHT22;244;48.508;9.052;2023-04-25T07:22:38;10.30;19.50
516;DHT22;244;48.508;9.052;2023-04-25T07:25:06;10.20;19.60
516;DHT22;244;48.508;9.052;2023-04-25T07:27:34;10.10;19.80
516;DHT22;244;48.508;9.052;2023-04-25T07:30:04;10.10;20.00
516;DHT22;244;48.508;9.052;2023-04-25T07:32:34;10.00;20.30
516;DHT22;244;48.508;9.052;2023-04-25T07:35:01;10.00;20.70
516;DHT22;244;48.508;9.052;2023-04-25T07:37:28;10.00;21.10
516;DHT22;244;48.508;9.052;2023-04-25T07:39:57;10.10;21.40
516;DHT22;244;48.508;9.052;2023-04-25T07:42:24;10.10;21.60
516;DHT22;244;48.508;9.052;2023-04-25T07:44:51;10.10;21.70
516;DHT22;244;48.508;9.052;2023-04-25T07:47:18;10.10;22.00
516;DHT22;244;48.508;9.052;2023-04-25T07:49:45;10.10;22.70
516;DHT22;244;48.508;9.052;2023-04-25T07:52:12;10.10;22.20
516;DHT22;244;48.508;9.052;2023-04-25T07:54:39;10.10;22.30
516;DHT22;244;48.508;9.052;2023-04-25T07:57:08;10.10;22.40
516;DHT22;244;48.508;9.052;2023-04-25T07:59:35;10.10;22.30
516;DHT22;244;48.508;9.052;2023-04-25T08:02:02;10.10;22.40
516;DHT22;244;48.508;9.052;2023-04-25T08:04:29;10.20;22.50
516;DHT22;244;48.508;9.052;2023-04-25T08:06:56;10.20;22.50
516;DHT22;244;48.508;9.052;2023-04-25T08:09:23;10.10;22.70
516;DHT22;244;48.508;9.052;2023-04-25T08:11:50;10.00;22.80
516;DHT22;244;48.508;9.052;2023-04-25T08:14:18;10.00;22.90
516;DHT22;244;48.508;9.052;2023-04-25T08:16:45;9.90;23.80
516;DHT22;244;48.508;9.052;2023-04-25T08:19:12;10.00;23.30
516;DHT22;244;48.508;9.052;2023-04-25T08:21:39;10.00;23.50
516;DHT22;244;48.508;9.052;2023-04-25T08:24:07;10.00;23.50
516;DHT22;244;48.508;9.052;2023-04-25T08:26:34;10.00;23.50
516;DHT22;244;48.508;9.052;2023-04-25T08:29:02;10.00;23.50
516;DHT22;244;48.508;9.052;2023-04-25T08:31:31;9.90;24.20
516;DHT22;244;48.508;9.052;2023-04-25T08:33:58;9.90;24.20
516;DHT22;244;48.508;9.052;2023-04-25T08:36:25;10.00;23.60
516;DHT22;244;48.508;9.052;2023-04-25T08:38:53;9.90;24.50
516;DHT22;244;48.508;9.052;2023-04-25T08:41:21;9.90;24.90
516;DHT22;244;48.508;9.052;2023-04-25T08:43:49;10.00;24.20
516;DHT22;244;48.508;9.052;2023-04-25T08:46:18;10.00;24.20
516;DHT22;244;48.508;9.052;2023-04-25T08:48:47;10.10;24.30
516;DHT22;244;48.508;9.052;2023-04-25T08:51:20;10.20;24.20
516;DHT22;244;48.508;9.052;2023-04-25T08:53:49;10.30;24.20
516;DHT22;244;48.508;9.052;2023-04-25T08:56:17;10.30;23.80
516;DHT22;244;48.508;9.052;2023-04-25T08:58:47;10.20;23.80
516;DHT22;244;48.508;9.052;2023-04-25T09:01:14;10.00;23.60
516;DHT22;244;48.508;9.052;2023-04-25T09:03:42;9.80;24.20
516;DHT22;244;48.508;9.052;2023-04-25T09:06:11;9.50;24.10
516;DHT22;244;48.508;9.052;2023-04-25T09:08:38;9.30;24.20
516;DHT22;244;48.508;9.052;2023-04-25T09:11:06;9.10;24.30
516;DHT22;244;48.508;9.052;2023-04-25T09:13:33;9.00;24.50
516;DHT22;244;48.508;9.052;2023-04-25T09:16:01;8.90;25.10
516;DHT22;244;48.508;9.052;2023-04-25T09:18:29;8.90;25.40
516;DHT22;244;48.508;9.052;2023-04-25T09:20:58;8.80;25.60
516;DHT22;244;48.508;9.052;2023-04-25T09:23:26;8.70;25.60
516;DHT22;244;48.508;9.052;2023-04-25T09:25:53;8.70;25.80
516;DHT22;244;48.508;9.052;2023-04-25T09:28:23;8.70;26.10
516;DHT22;244;48.508;9.052;2023-04-25T09:30:55;8.70;26.90
516;DHT22;244;48.508;9.052;2023-04-25T09:33:27;8.70;26.40
516;DHT22;244;48.508;9.052;2023-04-25T09:35:55;8.70;26.50
516;DHT22;244;48.508;9.052;2023-04-25T09:38:30;8.60;26.60
516;DHT22;244;48.508;9.052;2023-04-25T09:40:57;8.60;26.40
516;DHT22;244;48.508;9.052;2023-04-25T09:43:26;8.40;26.00
516;DHT22;244;48.508;9.052;2023-04-25T09:45:54;8.30;26.10
516;DHT22;244;48.508;9.052;2023-04-25T09:48:25;8.20;26.50
516;DHT22;244;48.508;9.052;2023-04-25T09:51:05;8.20;26.30
516;DHT22;244;48.508;9.052;2023-04-25T09:53:33;8.10;26.40
516;DHT22;244;48.508;9.052;2023-04-25T09:56:04;8.10;26.40
516;DHT22;244;48.508;9.052;2023-04-25T09:58:32;8.00;27.10
516;DHT22;244;48.508;9.052;2023-04-25T10:01:00;7.90;26.40
516;DHT22;244;48.508;9.052;2023-04-25T10:03:30;7.90;26.60
516;DHT22;244;48.508;9.052;2023-04-25T10:05:59;7.80;26.90
516;DHT22;244;48.508;9.052;2023-04-25T10:08:33;7.80;27.10
516;DHT22;244;48.508;9.052;2023-04-25T10:11:01;7.80;27.10
516;DHT22;244;48.508;9.052;2023-04-25T10:13:29;7.80;27.10
516;DHT22;244;48.508;9.052;2023-04-25T10:19:01;7.80;27.10
516;DHT22;244;48.508;9.052;2023-04-25T10:21:31;7.80;27.40
516;DHT22;244;48.508;9.052;2023-04-25T10:24:00;7.80;27.50
516;DHT22;244;48.508;9.052;2023-04-25T10:26:27;7.80;27.60
516;DHT22;244;48.508;9.052;2023-04-25T10:28:55;7.90;28.30
516;DHT22;244;48.508;9.052;2023-04-25T10:31:22;7.90;27.70
516;DHT22;244;48.508;9.052;2023-04-25T10:33:49;7.90;27.80
516;DHT22;244;48.508;9.052;2023-04-25T10:36:19;8.10;27.80
516;DHT22;244;48.508;9.052;2023-04-25T10:38:49;8.10;27.50
516;DHT22;244;48.508;9.052;2023-04-25T10:41:20;8.10;27.30
516;DHT22;244;48.508;9.052;2023-04-25T10:43:48;8.20;27.40
516;DHT22;244;48.508;9.052;2023-04-25T10:46:17;8.30;27.40
516;DHT22;244;48.508;9.052;2023-04-25T10:48:48;8.40;27.30
516;DHT22;244;48.508;9.052;2023-04-25T10:51:17;8.60;27.00
516;DHT22;244;48.508;9.052;2023-04-25T10:53:45;8.90;27.00
516;DHT22;244;48.508;9.052;2023-04-25T10:56:18;9.10;26.60
516;DHT22;244;48.508;9.052;2023-04-25T10:58:45;9.20;26.90
516;DHT22;244;48.508;9.052;2023-04-25T11:01:15;9.40;26.70
516;DHT22;244;48.508;9.052;2023-04-25T11:03:43;9.50;26.40
516;DHT22;244;48.508;9.052;2023-04-25T11:06:20;9.60;26.40
516;DHT22;244;48.508;9.052;2023-04-25T11:08:49;9.60;26.10
516;DHT22;244;48.508;9.052;2023-04-25T11:11:18;9.70;25.80
516;DHT22;244;48.508;9.052;2023-04-25T11:13:48;9.60;25.60
516;DHT22;244;48.508;9.052;2023-04-25T11:16:15;9.50;25.40
516;DHT22;244;48.508;9.052;2023-04-25T11:18:42;9.40;25.50
516;DHT22;244;48.508;9.052;2023-04-25T11:21:09;9.30;25.50
516;DHT22;244;48.508;9.052;2023-04-25T11:23:36;9.20;25.60
516;DHT22;244;48.508;9.052;2023-04-25T11:26:03;9.10;25.70
516;DHT22;244;48.508;9.052;2023-04-25T11:28:32;9.10;25.80
516;DHT22;244;48.508;9.052;2023-04-25T11:30:58;9.00;25.70
516;DHT22;244;48.508;9.052;2023-04-25T11:33:26;9.00;25.70
516;DHT22;244;48.508;9.052;2023-04-25T11:35:54;9.00;25.70
516;DHT22;244;48.508;9.052;2023-04-25T11:38:22;9.10;26.10
516;DHT22;244;48.508;9.052;2023-04-25T11:40:50;9.30;26.10
516;DHT22;244;48.508;9.052;2023-04-25T11:43:18;9.40;26.10
516;DHT22;244;48.508;9.052;2023-04-25T11:45:48;9.70;26.30
516;DHT22;244;48.508;9.052;2023-04-25T11:48:16;9.90;26.30
516;DHT22;244;48.508;9.052;2023-04-25T11:50:43;10.10;25.40
516;DHT22;244;48.508;9.052;2023-04-25T11:53:10;10.40;24.90
516;DHT22;244;48.508;9.052;2023-04-25T11:55:37;10.50;24.80
516;DHT22;244;48.508;9.052;2023-04-25T11:58:05;10.70;24.90
516;DHT22;244;48.508;9.052;2023-04-25T12:00:34;11.10;25.00
516;DHT22;244;48.508;9.052;2023-04-25T12:03:02;11.30;24.90
516;DHT22;244;48.508;9.052;2023-04-25T12:05:31;11.50;24.50
516;DHT22;244;48.508;9.052;2023-04-25T12:08:09;11.60;25.20
516;DHT22;244;48.508;9.052;2023-04-25T12:10:37;11.80;24.30
516;DHT22;244;48.508;9.052;2023-04-25T12:13:18;11.90;24.20
516;DHT22;244;48.508;9.052;2023-04-25T12:15:46;11.90;23.90
516;DHT22;244;48.508;9.052;2023-04-25T12:18:14;11.60;23.50
516;DHT22;244;48.508;9.052;2023-04-25T12:20:41;11.60;23.70
516;DHT22;244;48.508;9.052;2023-04-25T12:23:09;11.60;23.80
516;DHT22;244;48.508;9.052;2023-04-25T12:25:38;11.60;23.70
516;DHT22;244;48.508;9.052;2023-04-25T12:28:13;11.60;23.60
516;DHT22;244;48.508;9.052;2023-04-25T12:30:53;11.70;23.70
516;DHT22;244;48.508;9.052;2023-04-25T12:33:22;11.70;23.70
516;DHT22;244;48.508;9.052;2023-04-25T12:35:49;11.60;23.70
516;DHT22;244;48.508;9.052;2023-04-25T12:38:21;11.60;23.80
516;DHT22;244;48.508;9.052;2023-04-25T12:40:48;11.50;23.80
516;DHT22;244;48.508;9.052;2023-04-25T12:43:15;11.40;23.60
516;DHT22;244;48.508;9.052;2023-04-25T12:45:42;11.40;23.60
516;DHT22;244;48.508;9.052;2023-04-25T12:48:09;11.30;23.60
516;DHT22;244;48.508;9.052;2023-04-25T12:50:38;11.40;23.60
516;DHT22;244;48.508;9.052;2023-04-25T12:53:04;11.40;23.30
516;DHT22;244;48.508;9.052;2023-04-25T12:55:31;11.40;23.40
516;DHT22;244;48.508;9.052;2023-04-25T12:57:58;11.50;23.50
516;DHT22;244;48.508;9.052;2023-04-25T13:00:25;11.70;24.00
516;DHT22;244;48.508;9.052;2023-04-25T13:02:53;12.10;24.90
516;DHT22;244;48.508;9.052;2023-04-25T13:05:20;12.50;25.20
516;DHT22;244;48.508;9.052;2023-04-25T13:07:48;12.90;25.40
516;DHT22;244;48.508;9.052;2023-04-25T13:10:15;13.10;25.20
516;DHT22;244;48.508;9.052;2023-04-25T13:12:43;13.10;24.60
516;DHT22;244;48.508;9.052;2023-04-25T13:15:11;13.00;24.10
516;DHT22;244;48.508;9.052;2023-04-25T13:17:38;12.90;22.90
516;DHT22;244;48.508;9.052;2023-04-25T13:20:06;12.80;22.90
516;DHT22;244;48.508;9.052;2023-04-25T13:22:35;12.60;23.10
516;DHT22;244;48.508;9.052;2023-04-25T13:25:05;12.50;23.10
516;DHT22;244;48.508;9.052;2023-04-25T13:27:33;12.40;22.50
516;DHT22;244;48.508;9.052;2023-04-25T13:30:02;12.40;22.40
516;DHT22;244;48.508;9.052;2023-04-25T13:32:32;12.50;22.30
516;DHT22;244;48.508;9.052;2023-04-25T13:34:59;12.80;22.50
516;DHT22;244;48.508;9.052;2023-04-25T13:37:26;13.10;22.40
516;DHT22;244;48.508;9.052;2023-04-25T13:39:55;13.30;22.50
516;DHT22;244;48.508;9.052;2023-04-25T13:42:23;13.60;22.60
516;DHT22;244;48.508;9.052;2023-04-25T13:44:50;14.00;22.60
516;DHT22;244;48.508;9.052;2023-04-25T13:47:17;14.50;22.90
516;DHT22;244;48.508;9.052;2023-04-25T13:49:44;14.90;22.00
516;DHT22;244;48.508;9.052;2023-04-25T13:52:11;15.10;21.00
516;DHT22;244;48.508;9.052;2023-04-25T13:54:38;15.30;19.60
516;DHT22;244;48.508;9.052;2023-04-25T13:57:06;15.40;18.50
516;DHT22;244;48.508;9.052;2023-04-25T13:59:34;15.60;18.60
516;DHT22;244;48.508;9.052;2023-04-25T14:02:01;15.50;17.40
516;DHT22;244;48.508;9.052;2023-04-25T14:04:28;15.10;16.50
516;DHT22;244;48.508;9.052;2023-04-25T14:06:55;14.80;16.60
516;DHT22;244;48.508;9.052;2023-04-25T14:09:22;14.60;17.50
516;DHT22;244;48.508;9.052;2023-04-25T14:11:51;14.40;17.10
516;DHT22;244;48.508;9.052;2023-04-25T14:14:18;14.20;16.20
516;DHT22;244;48.508;9.052;2023-04-25T14:16:46;14.30;17.20
516;DHT22;244;48.508;9.052;2023-04-25T14:19:14;14.60;18.00
516;DHT22;244;48.508;9.052;2023-04-25T14:21:41;15.30;18.00
516;DHT22;244;48.508;9.052;2023-04-25T14:24:09;16.00;18.00
516;DHT22;244;48.508;9.052;2023-04-25T14:26:36;16.40;17.60
516;DHT22;244;48.508;9.052;2023-04-25T14:29:04;16.60;17.00
516;DHT22;244;48.508;9.052;2023-04-25T14:31:32;16.60;14.40
516;DHT22;244;48.508;9.052;2023-04-25T14:34:01;16.60;14.00
516;DHT22;244;48.508;9.052;2023-04-25T14:36:29;16.40;14.70
516;DHT22;244;48.508;9.052;2023-04-25T14:38:56;16.20;15.00
516;DHT22;244;48.508;9.052;2023-04-25T14:41:23;16.10;14.30
516;DHT22;244;48.508;9.052;2023-04-25T14:43:51;16.10;13.90
516;DHT22;244;48.508;9.052;2023-04-25T14:46:18;16.40;14.60
516;DHT22;244;48.508;9.052;2023-04-25T14:48:46;17.40;16.50
516;DHT22;244;48.508;9.052;2023-04-25T14:51:14;18.30;15.20
516;DHT22;244;48.508;9.052;2023-04-25T14:53:41;18.60;14.30
516;DHT22;244;48.508;9.052;2023-04-25T14:56:08;18.60;13.10
516;DHT22;244;48.508;9.052;2023-04-25T14:58:35;18.40;13.40
516;DHT22;244;48.508;9.052;2023-04-25T15:01:03;18.00;13.10
516;DHT22;244;48.508;9.052;2023-04-25T15:03:30;17.60;13.00
516;DHT22;244;48.508;9.052;2023-04-25T15:05:58;17.10;13.10
516;DHT22;244;48.508;9.052;2023-04-25T15:08:27;16.50;14.10
516;DHT22;244;48.508;9.052;2023-04-25T15:10:54;15.90;14.80
516;DHT22;244;48.508;9.052;2023-04-25T15:13:21;15.50;15.00
516;DHT22;244;48.508;9.052;2023-04-25T15:15:48;15.10;15.30
516;DHT22;244;48.508;9.052;2023-04-25T15:18:16;14.80;15.10
516;DHT22;244;48.508;9.052;2023-04-25T15:20:44;14.50;15.70
516;DHT22;244;48.508;9.052;2023-04-25T15:23:11;14.40;16.20
516;DHT22;244;48.508;9.052;2023-04-25T15:25:39;14.70;16.60
516;DHT22;244;48.508;9.052;2023-04-25T15:28:06;15.10;16.80
516;DHT22;244;48.508;9.052;2023-04-25T15:30:34;15.30;17.00
516;DHT22;244;48.508;9.052;2023-04-25T15:33:01;15.50;16.40
516;DHT22;244;48.508;9.052;2023-04-25T15:35:28;15.60;16.50
516;DHT22;244;48.508;9.052;2023-04-25T15:37:55;15.90;16.70
516;DHT22;244;48.508;9.052;2023-04-25T15:40:22;16.20;16.20
516;DHT22;244;48.508;9.052;2023-04-25T15:42:51;16.20;16.40
516;DHT22;244;48.508;9.052;2023-04-25T15:45:20;16.20;16.20
516;DHT22;244;48.508;9.052;2023-04-25T15:47:47;16.20;16.30
516;DHT22;244;48.508;9.052;2023-04-25T15:50:14;16.20;16.60
516;DHT22;244;48.508;9.052;2023-04-25T15:52:41;16.40;15.60
516;DHT22;244;48.508;9.052;2023-04-25T15:55:08;17.10;15.60
516;DHT22;244;48.508;9.052;2023-04-25T15:57:37;18.20;16.00
516;DHT22;244;48.508;9.052;2023-04-25T16:00:09;19.40;14.80
516;DHT22;244;48.508;9.052;2023-04-25T16:02:38;20.30;12.90
516;DHT22;244;48.508;9.052;2023-04-25T16:05:05;20.20;12.10
516;DHT22;244;48.508;9.052;2023-04-25T16:07:33;19.50;12.40
516;DHT22;244;48.508;9.052;2023-04-25T16:10:00;18.80;12.70
516;DHT22;244;48.508;9.052;2023-04-25T16:12:28;18.30;13.00
516;DHT22;244;48.508;9.052;2023-04-25T16:14:56;17.80;13.50
516;DHT22;244;48.508;9.052;2023-04-25T16:17:24;17.50;13.50
516;DHT22;244;48.508;9.052;2023-04-25T16:19:54;17.30;13.90
516;DHT22;244;48.508;9.052;2023-04-25T16:22:21;17.20;14.20
516;DHT22;244;48.508;9.052;2023-04-25T16:24:49;17.00;14.30
516;DHT22;244;48.508;9.052;2023-04-25T16:27:16;17.00;13.80
516;DHT22;244;48.508;9.052;2023-04-25T16:29:43;17.30;14.20
516;DHT22;244;48.508;9.052;2023-04-25T16:32:10;17.50;14.40
516;DHT22;244;48.508;9.052;2023-04-25T16:34:39;17.60;14.40
516;DHT22;244;48.508;9.052;2023-04-25T16:37:06;17.70;14.70
516;DHT22;244;48.508;9.052;2023-04-25T16:39:32;17.90;14.20
516;DHT22;244;48.508;9.052;2023-04-25T16:41:59;17.90;14.20
516;DHT22;244;48.508;9.052;2023-04-25T16:44:26;17.80;14.20
516;DHT22;244;48.508;9.052;2023-04-25T16:46:53;17.60;14.00
516;DHT22;244;48.508;9.052;2023-04-25T16:49:21;17.50;14.00